sensor_id;sensor_type;location;lat;lon;timestamp;P1;durP1;ratioP1;P2;durP2;ratioP2
46040;SDS011;31779;49.124;19.190;2022-08-19T00:01:40;21.67;;;19.42;;
46040;SDS011;31779;49.124;19.190;2022-08-19T00:04:11;20.50;;;18.50;;
46040;SDS011;31779;49.124;19.190;2022-08-19T00:06:41;22.25;;;19.95;;
46040;SDS011;31779;49.124;19.190;2022-08-19T00:09:11;22.60;;;20.38;;
46040;SDS011;31779;49.124;19.190;2022-08-19T00:11:42;21.15;;;18.90;;
46040;SDS011;31779;49.124;19.190;2022-08-19T00:14:11;26.48;;;21.60;;
46040;SDS011;31779;49.124;19.190;2022-08-19T00:16:41;21.83;;;19.05;;
46040;SDS011;31779;49.124;19.190;2022-08-19T00:19:11;22.52;;;20.20;;
46040;SDS011;31779;49.124;19.190;2022-08-19T00:21:39;22.17;;;19.70;;
46040;SDS011;31779;49.124;19.190;2022-08-19T00:24:09;21.52;;;19.50;;
46040;SDS011;31779;49.124;19.190;2022-08-19T00:26:38;23.77;;;20.45;;
46040;SDS011;31779;49.124;19.190;2022-08-19T00:29:08;22.15;;;20.05;;
46040;SDS011;31779;49.124;19.190;2022-08-19T00:31:38;22.33;;;20.15;;
46040;SDS011;31779;49.124;19.190;2022-08-19T00:34:06;22.73;;;20.58;;
46040;SDS011;31779;49.124;19.190;2022-08-19T00:36:34;21.00;;;19.05;;
46040;SDS011;31779;49.124;19.190;2022-08-19T00:39:02;23.50;;;21.30;;
46040;SDS011;31779;49.124;19.190;2022-08-19T00:41:31;23.15;;;20.77;;
46040;SDS011;31779;49.124;19.190;2022-08-19T00:44:00;23.55;;;21.38;;
46040;SDS011;31779;49.124;19.190;2022-08-19T00:46:38;24.60;;;22.10;;
46040;SDS011;31779;49.124;19.190;2022-08-19T00:49:10;20.73;;;18.77;;
46040;SDS011;31779;49.124;19.190;2022-08-19T00:51:43;22.67;;;18.55;;
46040;SDS011;31779;49.124;19.190;2022-08-19T00:54:13;22.33;;;20.40;;
46040;SDS011;31779;49.124;19.190;2022-08-19T00:56:42;20.23;;;18.42;;
46040;SDS011;31779;49.124;19.190;2022-08-19T00:59:11;21.95;;;19.73;;
46040;SDS011;31779;49.124;19.190;2022-08-19T01:02:00;22.52;;;20.23;;
46040;SDS011;31779;49.124;19.190;2022-08-19T01:04:28;22.23;;;20.23;;
46040;SDS011;31779;49.124;19.190;2022-08-19T01:06:56;25.35;;;19.77;;
46040;SDS011;31779;49.124;19.190;2022-08-19T01:09:26;20.58;;;18.55;;
46040;SDS011;31779;49.124;19.190;2022-08-19T01:11:57;25.88;;;21.58;;
46040;SDS011;31779;49.124;19.190;2022-08-19T01:14:25;23.25;;;19.40;;
46040;SDS011;31779;49.124;19.190;2022-08-19T01:16:53;23.05;;;20.75;;
46040;SDS011;31779;49.124;19.190;2022-08-19T01:19:26;21.17;;;19.05;;
46040;SDS011;31779;49.124;19.190;2022-08-19T01:25:00;23.25;;;20.95;;
46040;SDS011;31779;49.124;19.190;2022-08-19T01:27:41;21.58;;;19.45;;
46040;SDS011;31779;49.124;19.190;2022-08-19T01:30:13;20.80;;;18.52;;
46040;SDS011;31779;49.124;19.190;2022-08-19T01:32:44;21.05;;;19.05;;
46040;SDS011;31779;49.124;19.190;2022-08-19T01:35:12;23.67;;;21.33;;
46040;SDS011;31779;49.124;19.190;2022-08-19T01:37:41;22.85;;;20.85;;
46040;SDS011;31779;49.124;19.190;2022-08-19T01:40:21;21.80;;;19.80;;
46040;SDS011;31779;49.124;19.190;2022-08-19T01:42:50;21.67;;;19.42;;
46040;SDS011;31779;49.124;19.190;2022-08-19T01:45:20;20.65;;;18.70;;
46040;SDS011;31779;49.124;19.190;2022-08-19T01:47:50;23.48;;;21.05;;
46040;SDS011;31779;49.124;19.190;2022-08-19T01:50:29;21.67;;;19.70;;
46040;SDS011;31779;49.124;19.190;2022-08-19T01:52:58;19.48;;;17.63;;
46040;SDS011;31779;49.124;19.190;2022-08-19T01:55:33;22.23;;;20.10;;
46040;SDS011;31779;49.124;19.190;2022-08-19T01:58:08;20.85;;;18.60;;
46040;SDS011;31779;49.124;19.190;2022-08-19T02:00:43;20.25;;;18.30;;
46040;SDS011;31779;49.124;19.190;2022-08-19T02:03:12;20.80;;;19.00;;
46040;SDS011;31779;49.124;19.190;2022-08-19T02:05:40;21.90;;;19.83;;
46040;SDS011;31779;49.124;19.190;2022-08-19T02:08:10;20.33;;;17.55;;
46040;SDS011;31779;49.124;19.190;2022-08-19T02:10:40;21.27;;;19.27;;
46040;SDS011;31779;49.124;19.190;2022-08-19T02:13:10;21.80;;;19.75;;
46040;SDS011;31779;49.124;19.190;2022-08-19T02:15:39;22.10;;;20.10;;
46040;SDS011;31779;49.124;19.190;2022-08-19T02:18:07;20.48;;;18.67;;
46040;SDS011;31779;49.124;19.190;2022-08-19T02:20:36;21.65;;;19.75;;
46040;SDS011;31779;49.124;19.190;2022-08-19T02:23:05;24.67;;;22.25;;
46040;SDS011;31779;49.124;19.190;2022-08-19T02:25:42;21.80;;;19.63;;
46040;SDS011;31779;49.124;19.190;2022-08-19T02:28:12;20.90;;;19.10;;
46040;SDS011;31779;49.124;19.190;2022-08-19T02:30:45;21.52;;;19.50;;
46040;SDS011;31779;49.124;19.190;2022-08-19T02:33:14;21.15;;;19.13;;
46040;SDS011;31779;49.124;19.190;2022-08-19T02:35:43;21.27;;;19.02;;
46040;SDS011;31779;49.124;19.190;2022-08-19T02:38:12;22.13;;;19.75;;
46040;SDS011;31779;49.124;19.190;2022-08-19T02:40:54;22.23;;;20.15;;
46040;SDS011;31779;49.124;19.190;2022-08-19T02:43:26;21.05;;;19.15;;
46040;SDS011;31779;49.124;19.190;2022-08-19T02:45:59;22.00;;;20.00;;
46040;SDS011;31779;49.124;19.190;2022-08-19T02:48:27;22.38;;;19.92;;
46040;SDS011;31779;49.124;19.190;2022-08-19T02:50:55;22.88;;;20.65;;
46040;SDS011;31779;49.124;19.190;2022-08-19T02:53:24;22.70;;;20.50;;
46040;SDS011;31779;49.124;19.190;2022-08-19T02:55:54;21.17;;;19.27;;
46040;SDS011;31779;49.124;19.190;2022-08-19T02:58:23;23.92;;;21.45;;
46040;SDS011;31779;49.124;19.190;2022-08-19T03:00:52;24.02;;;21.45;;
46040;SDS011;31779;49.124;19.190;2022-08-19T03:03:22;24.67;;;22.17;;
46040;SDS011;31779;49.124;19.190;2022-08-19T03:05:50;25.83;;;23.38;;
46040;SDS011;31779;49.124;19.190;2022-08-19T03:08:23;22.60;;;20.40;;
46040;SDS011;31779;49.124;19.190;2022-08-19T03:10:52;23.67;;;21.35;;
46040;SDS011;31779;49.124;19.190;2022-08-19T03:13:21;22.13;;;19.95;;
46040;SDS011;31779;49.124;19.190;2022-08-19T03:15:50;23.33;;;21.00;;
46040;SDS011;31779;49.124;19.190;2022-08-19T03:18:18;21.42;;;19.33;;
46040;SDS011;31779;49.124;19.190;2022-08-19T03:20:49;22.73;;;20.60;;
46040;SDS011;31779;49.124;19.190;2022-08-19T03:23:23;24.42;;;21.95;;
46040;SDS011;31779;49.124;19.190;2022-08-19T03:25:51;22.70;;;20.55;;
46040;SDS011;31779;49.124;19.190;2022-08-19T03:28:41;23.08;;;20.55;;
46040;SDS011;31779;49.124;19.190;2022-08-19T03:31:18;25.83;;;23.42;;
46040;SDS011;31779;49.124;19.190;2022-08-19T03:34:13;24.80;;;22.00;;
46040;SDS011;31779;49.124;19.190;2022-08-19T03:36:45;23.02;;;20.60;;
46040;SDS011;31779;49.124;19.190;2022-08-19T03:39:13;22.90;;;20.90;;
46040;SDS011;31779;49.124;19.190;2022-08-19T03:41:42;25.25;;;22.77;;
46040;SDS011;31779;49.124;19.190;2022-08-19T03:44:15;25.27;;;20.13;;
46040;SDS011;31779;49.124;19.190;2022-08-19T03:46:48;23.20;;;21.10;;
46040;SDS011;31779;49.124;19.190;2022-08-19T03:49:17;22.73;;;20.40;;
46040;SDS011;31779;49.124;19.190;2022-08-19T03:51:47;23.25;;;21.08;;
46040;SDS011;31779;49.124;19.190;2022-08-19T03:54:17;22.80;;;20.60;;
46040;SDS011;31779;49.124;19.190;2022-08-19T03:56:47;22.23;;;19.83;;
46040;SDS011;31779;49.124;19.190;2022-08-19T03:59:18;24.83;;;22.30;;
46040;SDS011;31779;49.124;19.190;2022-08-19T04:01:55;25.20;;;22.85;;
46040;SDS011;31779;49.124;19.190;2022-08-19T04:04:24;25.63;;;22.00;;
46040;SDS011;31779;49.124;19.190;2022-08-19T04:06:55;22.85;;;20.48;;
46040;SDS011;31779;49.124;19.190;2022-08-19T04:09:23;25.85;;;23.17;;
46040;SDS011;31779;49.124;19.190;2022-08-19T04:11:53;22.83;;;20.42;;
46040;SDS011;31779;49.124;19.190;2022-08-19T04:14:26;22.35;;;20.33;;
46040;SDS011;31779;49.124;19.190;2022-08-19T04:16:58;24.83;;;22.23;;
46040;SDS011;31779;49.124;19.190;2022-08-19T04:19:28;24.05;;;20.65;;
46040;SDS011;31779;49.124;19.190;2022-08-19T04:21:57;23.25;;;18.60;;
46040;SDS011;31779;49.124;19.190;2022-08-19T04:24:25;27.05;;;22.52;;
46040;SDS011;31779;49.124;19.190;2022-08-19T04:26:53;23.15;;;20.85;;
46040;SDS011;31779;49.124;19.190;2022-08-19T04:29:22;22.75;;;20.65;;
46040;SDS011;31779;49.124;19.190;2022-08-19T04:31:52;23.85;;;21.67;;
46040;SDS011;31779;49.124;19.190;2022-08-19T04:34:23;25.42;;;22.45;;
46040;SDS011;31779;49.124;19.190;2022-08-19T04:36:54;23.27;;;21.05;;
46040;SDS011;31779;49.124;19.190;2022-08-19T04:39:24;22.48;;;20.35;;
46040;SDS011;31779;49.124;19.190;2022-08-19T04:42:17;21.50;;;19.40;;
46040;SDS011;31779;49.124;19.190;2022-08-19T04:45:08;22.15;;;20.15;;
46040;SDS011;31779;49.124;19.190;2022-08-19T04:47:39;24.75;;;21.48;;
46040;SDS011;31779;49.124;19.190;2022-08-19T04:50:25;23.50;;;20.25;;
46040;SDS011;31779;49.124;19.190;2022-08-19T04:52:53;20.13;;;18.20;;
46040;SDS011;31779;49.124;19.190;2022-08-19T04:55:24;22.17;;;19.80;;
46040;SDS011;31779;49.124;19.190;2022-08-19T04:57:55;23.02;;;20.70;;
46040;SDS011;31779;49.124;19.190;2022-08-19T05:00:23;26.05;;;23.30;;
46040;SDS011;31779;49.124;19.190;2022-08-19T05:02:51;23.30;;;20.88;;
46040;SDS011;31779;49.124;19.190;2022-08-19T05:05:19;23.38;;;21.05;;
46040;SDS011;31779;49.124;19.190;2022-08-19T05:07:47;23.90;;;21.40;;
46040;SDS011;31779;49.124;19.190;2022-08-19T05:10:16;23.83;;;21.25;;
46040;SDS011;31779;49.124;19.190;2022-08-19T05:12:44;23.25;;;20.90;;
46040;SDS011;31779;49.124;19.190;2022-08-19T05:15:12;22.92;;;20.55;;
46040;SDS011;31779;49.124;19.190;2022-08-19T05:17:40;23.77;;;21.50;;
46040;SDS011;31779;49.124;19.190;2022-08-19T05:20:28;23.48;;;21.30;;
46040;SDS011;31779;49.124;19.190;2022-08-19T05:23:14;23.67;;;21.40;;
46040;SDS011;31779;49.124;19.190;2022-08-19T05:25:48;29.20;;;20.52;;
46040;SDS011;31779;49.124;19.190;2022-08-19T05:28:17;25.73;;;20.80;;
46040;SDS011;31779;49.124;19.190;2022-08-19T05:30:47;22.38;;;19.75;;
46040;SDS011;31779;49.124;19.190;2022-08-19T05:33:15;23.95;;;21.65;;
46040;SDS011;31779;49.124;19.190;2022-08-19T05:35:45;24.42;;;20.85;;
46040;SDS011;31779;49.124;19.190;2022-08-19T05:38:13;22.15;;;20.02;;
46040;SDS011;31779;49.124;19.190;2022-08-19T05:40:41;22.55;;;20.27;;
46040;SDS011;31779;49.124;19.190;2022-08-19T05:43:11;21.38;;;19.17;;
46040;SDS011;31779;49.124;19.190;2022-08-19T05:45:42;22.60;;;19.80;;
46040;SDS011;31779;49.124;19.190;2022-08-19T05:48:11;22.65;;;18.55;;
46040;SDS011;31779;49.124;19.190;2022-08-19T05:50:40;23.10;;;20.58;;
46040;SDS011;31779;49.124;19.190;2022-08-19T05:53:08;22.25;;;19.98;;
46040;SDS011;31779;49.124;19.190;2022-08-19T05:55:36;23.35;;;18.38;;
46040;SDS011;31779;49.124;19.190;2022-08-19T05:58:05;21.13;;;18.98;;
46040;SDS011;31779;49.124;19.190;2022-08-19T06:00:35;21.80;;;19.70;;
46040;SDS011;31779;49.124;19.190;2022-08-19T06:03:04;20.42;;;18.45;;
46040;SDS011;31779;49.124;19.190;2022-08-19T06:05:38;21.08;;;19.08;;
46040;SDS011;31779;49.124;19.190;2022-08-19T06:08:18;22.20;;;19.00;;
46040;SDS011;31779;49.124;19.190;2022-08-19T06:13:45;20.02;;;18.15;;
46040;SDS011;31779;49.124;19.190;2022-08-19T06:16:26;21.25;;;19.10;;
46040;SDS011;31779;49.124;19.190;2022-08-19T06:18:55;21.65;;;19.48;;
46040;SDS011;31779;49.124;19.190;2022-08-19T06:21:25;21.10;;;19.17;;
46040;SDS011;31779;49.124;19.190;2022-08-19T06:23:55;21.02;;;18.88;;
46040;SDS011;31779;49.124;19.190;2022-08-19T06:26:25;22.75;;;19.08;;
46040;SDS011;31779;49.124;19.190;2022-08-19T06:28:54;19.83;;;17.83;;
46040;SDS011;31779;49.124;19.190;2022-08-19T06:31:24;33.33;;;17.65;;
46040;SDS011;31779;49.124;19.190;2022-08-19T06:33:54;20.30;;;18.25;;
46040;SDS011;31779;49.124;19.190;2022-08-19T06:36:56;19.48;;;17.63;;
46040;SDS011;31779;49.124;19.190;2022-08-19T06:39:19;18.40;;;16.75;;
46040;SDS011;31779;49.124;19.190;2022-08-19T06:41:51;18.75;;;17.17;;
46040;SDS011;31779;49.124;19.190;2022-08-19T06:44:29;18.70;;;16.83;;
46040;SDS011;31779;49.124;19.190;2022-08-19T06:47:10;18.08;;;16.48;;
46040;SDS011;31779;49.124;19.190;2022-08-19T06:49:55;17.83;;;16.02;;
46040;SDS011;31779;49.124;19.190;2022-08-19T06:52:34;20.08;;;18.27;;
46040;SDS011;31779;49.124;19.190;2022-08-19T06:55:04;17.80;;;16.30;;
46040;SDS011;31779;49.124;19.190;2022-08-19T06:57:33;19.45;;;17.67;;
46040;SDS011;31779;49.124;19.190;2022-08-19T07:00:02;19.55;;;17.67;;
46040;SDS011;31779;49.124;19.190;2022-08-19T07:02:38;19.10;;;17.10;;
46040;SDS011;31779;49.124;19.190;2022-08-19T07:05:21;19.40;;;17.58;;
46040;SDS011;31779;49.124;19.190;2022-08-19T07:07:50;20.65;;;18.77;;
46040;SDS011;31779;49.124;19.190;2022-08-19T07:10:18;20.60;;;18.77;;
46040;SDS011;31779;49.124;19.190;2022-08-19T07:12:46;19.23;;;17.45;;
46040;SDS011;31779;49.124;19.190;2022-08-19T07:15:16;20.60;;;17.10;;
46040;SDS011;31779;49.124;19.190;2022-08-19T07:17:44;18.95;;;17.10;;
46040;SDS011;31779;49.124;19.190;2022-08-19T07:20:18;19.98;;;17.75;;
46040;SDS011;31779;49.124;19.190;2022-08-19T07:22:47;20.45;;;18.65;;
46040;SDS011;31779;49.124;19.190;2022-08-19T07:25:17;18.60;;;16.90;;
46040;SDS011;31779;49.124;19.190;2022-08-19T07:27:48;19.73;;;18.13;;
46040;SDS011;31779;49.124;19.190;2022-08-19T07:30:20;20.23;;;17.40;;
46040;SDS011;31779;49.124;19.190;2022-08-19T07:32:52;19.20;;;17.50;;
46040;SDS011;31779;49.124;19.190;2022-08-19T07:35:20;20.52;;;18.42;;
46040;SDS011;31779;49.124;19.190;2022-08-19T07:37:48;19.58;;;17.73;;
46040;SDS011;31779;49.124;19.190;2022-08-19T07:40:16;20.50;;;18.45;;
46040;SDS011;31779;49.124;19.190;2022-08-19T07:42:44;20.02;;;17.08;;
46040;SDS011;31779;49.124;19.190;2022-08-19T07:45:12;18.35;;;16.70;;
46040;SDS011;31779;49.124;19.190;2022-08-19T07:47:40;17.77;;;16.23;;
46040;SDS011;31779;49.124;19.190;2022-08-19T07:50:16;18.35;;;16.75;;
46040;SDS011;31779;49.124;19.190;2022-08-19T07:52:47;17.90;;;16.35;;
46040;SDS011;31779;49.124;19.190;2022-08-19T07:55:21;18.95;;;17.38;;
46040;SDS011;31779;49.124;19.190;2022-08-19T07:58:10;17.23;;;16.02;;
46040;SDS011;31779;49.124;19.190;2022-08-19T08:00:39;17.48;;;15.98;;
46040;SDS011;31779;49.124;19.190;2022-08-19T08:03:08;19.75;;;18.08;;
46040;SDS011;31779;49.124;19.190;2022-08-19T08:05:40;19.30;;;17.63;;
46040;SDS011;31779;49.124;19.190;2022-08-19T08:08:27;15.93;;;14.65;;
46040;SDS011;31779;49.124;19.190;2022-08-19T08:11:14;18.00;;;16.02;;
46040;SDS011;31779;49.124;19.190;2022-08-19T08:13:46;17.30;;;15.90;;
46040;SDS011;31779;49.124;19.190;2022-08-19T08:16:31;18.17;;;16.52;;
46040;SDS011;31779;49.124;19.190;2022-08-19T08:19:14;18.00;;;16.33;;
46040;SDS011;31779;49.124;19.190;2022-08-19T08:21:52;17.90;;;16.50;;
46040;SDS011;31779;49.124;19.190;2022-08-19T08:24:24;15.35;;;14.23;;
46040;SDS011;31779;49.124;19.190;2022-08-19T08:26:54;17.25;;;15.35;;
46040;SDS011;31779;49.124;19.190;2022-08-19T08:29:24;16.15;;;14.82;;
46040;SDS011;31779;49.124;19.190;2022-08-19T08:32:01;17.92;;;16.33;;
46040;SDS011;31779;49.124;19.190;2022-08-19T08:34:40;17.30;;;15.55;;
46040;SDS011;31779;49.124;19.190;2022-08-19T08:37:08;15.90;;;14.50;;
46040;SDS011;31779;49.124;19.190;2022-08-19T08:39:36;18.05;;;16.45;;
46040;SDS011;31779;49.124;19.190;2022-08-19T08:45:00;16.95;;;15.40;;
46040;SDS011;31779;49.124;19.190;2022-08-19T08:47:30;15.80;;;14.60;;
46040;SDS011;31779;49.124;19.190;2022-08-19T08:50:05;15.77;;;14.48;;
46040;SDS011;31779;49.124;19.190;2022-08-19T08:52:45;16.77;;;14.45;;
46040;SDS011;31779;49.124;19.190;2022-08-19T08:55:18;17.90;;;16.25;;
46040;SDS011;31779;49.124;19.190;2022-08-19T08:57:51;15.98;;;14.55;;
46040;SDS011;31779;49.124;19.190;2022-08-19T09:00:26;16.55;;;14.93;;
46040;SDS011;31779;49.124;19.190;2022-08-19T09:03:06;18.13;;;14.68;;
46040;SDS011;31779;49.124;19.190;2022-08-19T09:14:39;18.52;;;16.77;;
46040;SDS011;31779;49.124;19.190;2022-08-19T09:17:22;16.25;;;14.13;;
46040;SDS011;31779;49.124;19.190;2022-08-19T09:20:04;15.30;;;13.95;;
46040;SDS011;31779;49.124;19.190;2022-08-19T09:22:39;15.35;;;13.95;;
46040;SDS011;31779;49.124;19.190;2022-08-19T09:25:13;14.30;;;12.50;;
46040;SDS011;31779;49.124;19.190;2022-08-19T09:27:53;13.05;;;11.80;;
46040;SDS011;31779;49.124;19.190;2022-08-19T09:30:30;13.30;;;12.30;;
46040;SDS011;31779;49.124;19.190;2022-08-19T09:33:00;13.40;;;12.40;;
46040;SDS011;31779;49.124;19.190;2022-08-19T09:35:29;14.48;;;13.25;;
46040;SDS011;31779;49.124;19.190;2022-08-19T09:37:57;13.48;;;12.55;;
46040;SDS011;31779;49.124;19.190;2022-08-19T09:40:27;12.65;;;11.85;;
46040;SDS011;31779;49.124;19.190;2022-08-19T09:43:01;12.68;;;11.50;;
46040;SDS011;31779;49.124;19.190;2022-08-19T09:45:39;13.70;;;12.40;;
46040;SDS011;31779;49.124;19.190;2022-08-19T09:48:10;12.90;;;12.05;;
46040;SDS011;31779;49.124;19.190;2022-08-19T09:50:44;12.20;;;11.50;;
46040;SDS011;31779;49.124;19.190;2022-08-19T09:53:21;12.32;;;11.55;;
46040;SDS011;31779;49.124;19.190;2022-08-19T09:55:52;13.43;;;12.43;;
46040;SDS011;31779;49.124;19.190;2022-08-19T09:58:24;13.82;;;12.63;;
46040;SDS011;31779;49.124;19.190;2022-08-19T10:00:55;12.70;;;11.80;;
46040;SDS011;31779;49.124;19.190;2022-08-19T10:03:24;13.77;;;12.57;;
46040;SDS011;31779;49.124;19.190;2022-08-19T10:05:56;13.30;;;12.32;;
46040;SDS011;31779;49.124;19.190;2022-08-19T10:08:28;12.10;;;11.02;;
46040;SDS011;31779;49.124;19.190;2022-08-19T10:10:59;14.02;;;13.00;;
46040;SDS011;31779;49.124;19.190;2022-08-19T10:13:49;13.35;;;12.30;;
46040;SDS011;31779;49.124;19.190;2022-08-19T10:16:19;12.45;;;11.75;;
46040;SDS011;31779;49.124;19.190;2022-08-19T10:18:52;11.57;;;10.88;;
46040;SDS011;31779;49.124;19.190;2022-08-19T10:21:26;12.32;;;11.40;;
46040;SDS011;31779;49.124;19.190;2022-08-19T10:23:59;12.60;;;11.82;;
46040;SDS011;31779;49.124;19.190;2022-08-19T10:26:32;12.05;;;11.15;;
46040;SDS011;31779;49.124;19.190;2022-08-19T10:29:04;14.18;;;13.05;;
46040;SDS011;31779;49.124;19.190;2022-08-19T10:31:35;11.82;;;11.13;;
46040;SDS011;31779;49.124;19.190;2022-08-19T10:34:24;13.40;;;12.43;;
46040;SDS011;31779;49.124;19.190;2022-08-19T10:36:54;12.85;;;11.82;;
46040;SDS011;31779;49.124;19.190;2022-08-19T10:39:30;12.38;;;11.48;;
46040;SDS011;31779;49.124;19.190;2022-08-19T10:42:09;12.15;;;11.35;;
46040;SDS011;31779;49.124;19.190;2022-08-19T10:44:40;11.68;;;10.88;;
46040;SDS011;31779;49.124;19.190;2022-08-19T10:49:51;11.70;;;10.90;;
46040;SDS011;31779;49.124;19.190;2022-08-19T10:52:43;11.20;;;10.40;;
46040;SDS011;31779;49.124;19.190;2022-08-19T10:55:20;12.02;;;11.13;;
46040;SDS011;31779;49.124;19.190;2022-08-19T10:58:12;12.30;;;11.35;;
46040;SDS011;31779;49.124;19.190;2022-08-19T11:00:53;12.18;;;11.10;;
46040;SDS011;31779;49.124;19.190;2022-08-19T11:03:23;11.35;;;10.65;;
46040;SDS011;31779;49.124;19.190;2022-08-19T11:06:01;12.00;;;11.07;;
46040;SDS011;31779;49.124;19.190;2022-08-19T11:08:32;12.30;;;11.20;;
46040;SDS011;31779;49.124;19.190;2022-08-19T11:11:02;12.40;;;11.18;;
46040;SDS011;31779;49.124;19.190;2022-08-19T11:13:33;12.70;;;11.52;;
46040;SDS011;31779;49.124;19.190;2022-08-19T11:18:40;13.40;;;12.25;;
46040;SDS011;31779;49.124;19.190;2022-08-19T11:21:13;12.77;;;11.77;;
46040;SDS011;31779;49.124;19.190;2022-08-19T11:23:47;12.40;;;11.38;;
46040;SDS011;31779;49.124;19.190;2022-08-19T11:26:18;12.15;;;11.10;;
46040;SDS011;31779;49.124;19.190;2022-08-19T11:28:47;13.07;;;12.13;;
46040;SDS011;31779;49.124;19.190;2022-08-19T11:31:16;13.10;;;11.82;;
46040;SDS011;31779;49.124;19.190;2022-08-19T11:33:46;13.25;;;12.13;;
46040;SDS011;31779;49.124;19.190;2022-08-19T11:36:18;13.30;;;12.23;;
46040;SDS011;31779;49.124;19.190;2022-08-19T11:38:49;12.27;;;11.48;;
46040;SDS011;31779;49.124;19.190;2022-08-19T11:41:18;11.10;;;10.30;;
46040;SDS011;31779;49.124;19.190;2022-08-19T11:43:47;12.02;;;11.05;;
46040;SDS011;31779;49.124;19.190;2022-08-19T11:46:16;12.43;;;11.20;;
46040;SDS011;31779;49.124;19.190;2022-08-19T11:48:44;12.93;;;11.85;;
46040;SDS011;31779;49.124;19.190;2022-08-19T11:51:13;11.70;;;10.77;;
46040;SDS011;31779;49.124;19.190;2022-08-19T11:53:43;11.55;;;10.65;;
46040;SDS011;31779;49.124;19.190;2022-08-19T11:56:11;11.97;;;10.40;;
46040;SDS011;31779;49.124;19.190;2022-08-19T11:58:40;11.60;;;10.40;;
46040;SDS011;31779;49.124;19.190;2022-08-19T12:01:11;10.80;;;9.50;;
46040;SDS011;31779;49.124;19.190;2022-08-19T12:03:43;11.23;;;10.23;;
46040;SDS011;31779;49.124;19.190;2022-08-19T12:06:15;10.68;;;9.75;;
46040;SDS011;31779;49.124;19.190;2022-08-19T12:08:52;10.55;;;9.65;;
46040;SDS011;31779;49.124;19.190;2022-08-19T12:11:20;12.80;;;10.20;;
46040;SDS011;31779;49.124;19.190;2022-08-19T12:13:50;12.55;;;11.38;;
46040;SDS011;31779;49.124;19.190;2022-08-19T12:16:19;10.85;;;9.63;;
46040;SDS011;31779;49.124;19.190;2022-08-19T12:18:50;11.80;;;10.70;;
46040;SDS011;31779;49.124;19.190;2022-08-19T12:21:20;11.45;;;10.32;;
46040;SDS011;31779;49.124;19.190;2022-08-19T12:23:56;11.52;;;10.15;;
46040;SDS011;31779;49.124;19.190;2022-08-19T12:26:26;10.90;;;9.82;;
46040;SDS011;31779;49.124;19.190;2022-08-19T12:28:55;10.15;;;9.35;;
46040;SDS011;31779;49.124;19.190;2022-08-19T12:31:23;13.02;;;9.73;;
46040;SDS011;31779;49.124;19.190;2022-08-19T12:33:50;12.25;;;10.32;;
46040;SDS011;31779;49.124;19.190;2022-08-19T12:36:19;15.00;;;10.27;;
46040;SDS011;31779;49.124;19.190;2022-08-19T12:41:17;11.68;;;10.13;;
46040;SDS011;31779;49.124;19.190;2022-08-19T12:43:45;13.60;;;10.35;;
46040;SDS011;31779;49.124;19.190;2022-08-19T12:46:14;12.47;;;10.73;;
46040;SDS011;31779;49.124;19.190;2022-08-19T12:48:44;12.38;;;11.27;;
46040;SDS011;31779;49.124;19.190;2022-08-19T12:51:17;10.70;;;9.70;;
46040;SDS011;31779;49.124;19.190;2022-08-19T12:53:47;15.50;;;11.05;;
46040;SDS011;31779;49.124;19.190;2022-08-19T12:56:17;15.10;;;10.57;;
46040;SDS011;31779;49.124;19.190;2022-08-19T12:58:49;11.05;;;10.05;;
46040;SDS011;31779;49.124;19.190;2022-08-19T13:01:19;13.82;;;10.98;;
46040;SDS011;31779;49.124;19.190;2022-08-19T13:03:49;15.18;;;11.45;;
46040;SDS011;31779;49.124;19.190;2022-08-19T13:06:20;18.15;;;11.43;;
46040;SDS011;31779;49.124;19.190;2022-08-19T13:08:48;11.47;;;10.33;;
46040;SDS011;31779;49.124;19.190;2022-08-19T13:11:17;12.27;;;11.05;;
46040;SDS011;31779;49.124;19.190;2022-08-19T13:13:48;15.70;;;10.93;;
46040;SDS011;31779;49.124;19.190;2022-08-19T13:16:18;10.73;;;9.82;;
46040;SDS011;31779;49.124;19.190;2022-08-19T13:18:48;10.73;;;9.30;;
46040;SDS011;31779;49.124;19.190;2022-08-19T13:21:23;10.63;;;9.60;;
46040;SDS011;31779;49.124;19.190;2022-08-19T13:23:53;11.40;;;9.30;;
46040;SDS011;31779;49.124;19.190;2022-08-19T13:26:22;15.13;;;10.18;;
46040;SDS011;31779;49.124;19.190;2022-08-19T13:28:50;16.00;;;11.32;;
46040;SDS011;31779;49.124;19.190;2022-08-19T13:31:39;11.18;;;10.07;;
46040;SDS011;31779;49.124;19.190;2022-08-19T13:37:00;11.63;;;10.45;;
46040;SDS011;31779;49.124;19.190;2022-08-19T13:39:31;11.70;;;10.65;;
46040;SDS011;31779;49.124;19.190;2022-08-19T13:41:59;15.55;;;11.73;;
46040;SDS011;31779;49.124;19.190;2022-08-19T13:44:28;11.40;;;10.18;;
46040;SDS011;31779;49.124;19.190;2022-08-19T13:47:01;14.57;;;12.30;;
46040;SDS011;31779;49.124;19.190;2022-08-19T13:49:34;14.70;;;10.50;;
46040;SDS011;31779;49.124;19.190;2022-08-19T13:52:04;13.02;;;10.57;;
46040;SDS011;31779;49.124;19.190;2022-08-19T13:54:33;17.00;;;10.35;;
46040;SDS011;31779;49.124;19.190;2022-08-19T13:57:02;17.50;;;12.32;;
46040;SDS011;31779;49.124;19.190;2022-08-19T13:59:30;11.23;;;9.60;;
46040;SDS011;31779;49.124;19.190;2022-08-19T14:01:58;10.75;;;9.68;;
46040;SDS011;31779;49.124;19.190;2022-08-19T14:04:27;11.27;;;10.10;;
46040;SDS011;31779;49.124;19.190;2022-08-19T14:06:55;16.00;;;11.38;;
46040;SDS011;31779;49.124;19.190;2022-08-19T14:09:23;15.15;;;11.00;;
46040;SDS011;31779;49.124;19.190;2022-08-19T14:11:51;12.45;;;11.30;;
46040;SDS011;31779;49.124;19.190;2022-08-19T14:14:19;11.48;;;10.40;;
46040;SDS011;31779;49.124;19.190;2022-08-19T14:16:48;16.42;;;10.80;;
46040;SDS011;31779;49.124;19.190;2022-08-19T14:19:17;12.60;;;11.20;;
46040;SDS011;31779;49.124;19.190;2022-08-19T14:21:45;11.52;;;10.35;;
46040;SDS011;31779;49.124;19.190;2022-08-19T14:24:12;11.30;;;9.40;;
46040;SDS011;31779;49.124;19.190;2022-08-19T14:26:41;14.00;;;11.18;;
46040;SDS011;31779;49.124;19.190;2022-08-19T14:29:09;12.25;;;10.88;;
46040;SDS011;31779;49.124;19.190;2022-08-19T14:31:36;10.85;;;9.85;;
46040;SDS011;31779;49.124;19.190;2022-08-19T14:34:07;12.40;;;9.35;;
46040;SDS011;31779;49.124;19.190;2022-08-19T14:36:34;12.43;;;10.23;;
46040;SDS011;31779;49.124;19.190;2022-08-19T14:39:05;14.77;;;10.52;;
46040;SDS011;31779;49.124;19.190;2022-08-19T14:41:33;11.63;;;10.43;;
46040;SDS011;31779;49.124;19.190;2022-08-19T14:44:01;11.52;;;9.77;;
46040;SDS011;31779;49.124;19.190;2022-08-19T14:46:29;11.80;;;10.40;;
46040;SDS011;31779;49.124;19.190;2022-08-19T14:48:58;15.95;;;9.05;;
46040;SDS011;31779;49.124;19.190;2022-08-19T14:51:26;15.27;;;11.00;;
46040;SDS011;31779;49.124;19.190;2022-08-19T14:53:55;17.20;;;10.40;;
46040;SDS011;31779;49.124;19.190;2022-08-19T14:56:24;14.88;;;10.38;;
46040;SDS011;31779;49.124;19.190;2022-08-19T14:58:54;19.52;;;9.15;;
46040;SDS011;31779;49.124;19.190;2022-08-19T15:01:24;12.07;;;9.80;;
46040;SDS011;31779;49.124;19.190;2022-08-19T15:03:53;11.32;;;9.40;;